sensor_id;sensor_type;location;lat;lon;timestamp;P1;durP1;ratioP1;P2;durP2;ratioP2
21771;SDS011;11047;47.904;8.110;2023-01-31T00:00:52;6.88;;;2.63;;
21771;SDS011;11047;47.904;8.110;2023-01-31T00:03:19;4.10;;;2.50;;
21771;SDS011;11047;47.904;8.110;2023-01-31T00:05:46;4.95;;;2.30;;
21771;SDS011;11047;47.904;8.110;2023-01-31T00:08:13;5.93;;;2.80;;
21771;SDS011;11047;47.904;8.110;2023-01-31T00:10:41;4.13;;;2.25;;
21771;SDS011;11047;47.904;8.110;2023-01-31T00:13:08;5.85;;;2.60;;
21771;SDS011;11047;47.904;8.110;2023-01-31T00:15:35;5.55;;;2.50;;
21771;SDS011;11047;47.904;8.110;2023-01-31T00:18:03;8.13;;;2.58;;
21771;SDS011;11047;47.904;8.110;2023-01-31T00:20:30;6.00;;;2.17;;
21771;SDS011;11047;47.904;8.110;2023-01-31T00:22:57;5.65;;;2.50;;
21771;SDS011;11047;47.904;8.110;2023-01-31T00:25:23;4.70;;;2.58;;
21771;SDS011;11047;47.904;8.110;2023-01-31T00:27:52;4.47;;;2.72;;
21771;SDS011;11047;47.904;8.110;2023-01-31T00:30:18;4.85;;;2.53;;
21771;SDS011;11047;47.904;8.110;2023-01-31T00:32:45;7.47;;;2.67;;
21771;SDS011;11047;47.904;8.110;2023-01-31T00:35:12;5.35;;;2.92;;
21771;SDS011;11047;47.904;8.110;2023-01-31T00:37:39;5.18;;;2.97;;
21771;SDS011;11047;47.904;8.110;2023-01-31T00:40:06;6.43;;;2.90;;
21771;SDS011;11047;47.904;8.110;2023-01-31T00:42:34;4.07;;;2.47;;
21771;SDS011;11047;47.904;8.110;2023-01-31T00:45:03;5.20;;;3.03;;
21771;SDS011;11047;47.904;8.110;2023-01-31T00:47:30;7.55;;;3.25;;
21771;SDS011;11047;47.904;8.110;2023-01-31T00:49:57;4.40;;;2.80;;
21771;SDS011;11047;47.904;8.110;2023-01-31T00:52:24;7.35;;;3.03;;
21771;SDS011;11047;47.904;8.110;2023-01-31T00:54:51;7.82;;;3.58;;
21771;SDS011;11047;47.904;8.110;2023-01-31T00:57:18;6.15;;;3.47;;
21771;SDS011;11047;47.904;8.110;2023-01-31T00:59:45;7.15;;;2.65;;
21771;SDS011;11047;47.904;8.110;2023-01-31T01:02:13;7.40;;;3.03;;
21771;SDS011;11047;47.904;8.110;2023-01-31T01:04:40;4.30;;;2.70;;
21771;SDS011;11047;47.904;8.110;2023-01-31T01:07:07;9.20;;;3.15;;
21771;SDS011;11047;47.904;8.110;2023-01-31T01:09:34;9.00;;;3.40;;
21771;SDS011;11047;47.904;8.110;2023-01-31T01:12:01;7.68;;;3.17;;
21771;SDS011;11047;47.904;8.110;2023-01-31T01:14:28;5.72;;;2.67;;
21771;SDS011;11047;47.904;8.110;2023-01-31T01:16:54;7.15;;;2.20;;
21771;SDS011;11047;47.904;8.110;2023-01-31T01:19:24;9.45;;;2.78;;
21771;SDS011;11047;47.904;8.110;2023-01-31T01:21:53;7.47;;;2.67;;
21771;SDS011;11047;47.904;8.110;2023-01-31T01:24:20;5.25;;;2.60;;
21771;SDS011;11047;47.904;8.110;2023-01-31T01:26:47;13.68;;;3.35;;
21771;SDS011;11047;47.904;8.110;2023-01-31T01:29:14;6.18;;;2.60;;
21771;SDS011;11047;47.904;8.110;2023-01-31T01:31:40;5.00;;;2.65;;
21771;SDS011;11047;47.904;8.110;2023-01-31T01:34:10;5.78;;;3.03;;
21771;SDS011;11047;47.904;8.110;2023-01-31T01:36:41;5.57;;;2.67;;
21771;SDS011;11047;47.904;8.110;2023-01-31T01:39:09;5.93;;;2.70;;
21771;SDS011;11047;47.904;8.110;2023-01-31T01:41:37;6.68;;;3.10;;
21771;SDS011;11047;47.904;8.110;2023-01-31T01:47:35;8.10;;;2.53;;
21771;SDS011;11047;47.904;8.110;2023-01-31T01:50:07;4.60;;;2.60;;
21771;SDS011;11047;47.904;8.110;2023-01-31T01:52:40;6.10;;;2.55;;
21771;SDS011;11047;47.904;8.110;2023-01-31T01:55:12;6.90;;;2.50;;
21771;SDS011;11047;47.904;8.110;2023-01-31T01:57:43;7.55;;;3.17;;
21771;SDS011;11047;47.904;8.110;2023-01-31T02:00:13;10.18;;;2.70;;
21771;SDS011;11047;47.904;8.110;2023-01-31T02:02:44;7.22;;;2.55;;
21771;SDS011;11047;47.904;8.110;2023-01-31T02:05:13;8.65;;;2.30;;
21771;SDS011;11047;47.904;8.110;2023-01-31T02:07:44;10.85;;;2.72;;
21771;SDS011;11047;47.904;8.110;2023-01-31T02:10:12;5.47;;;2.45;;
21771;SDS011;11047;47.904;8.110;2023-01-31T02:12:43;4.95;;;2.47;;
21771;SDS011;11047;47.904;8.110;2023-01-31T02:15:11;6.45;;;2.75;;
21771;SDS011;11047;47.904;8.110;2023-01-31T02:17:38;10.10;;;2.63;;
21771;SDS011;11047;47.904;8.110;2023-01-31T02:20:09;6.88;;;2.25;;
21771;SDS011;11047;47.904;8.110;2023-01-31T02:22:51;6.75;;;2.00;;
21771;SDS011;11047;47.904;8.110;2023-01-31T02:25:36;3.85;;;2.00;;
21771;SDS011;11047;47.904;8.110;2023-01-31T02:28:51;2.65;;;1.70;;
21771;SDS011;11047;47.904;8.110;2023-01-31T02:31:52;8.23;;;2.60;;
21771;SDS011;11047;47.904;8.110;2023-01-31T02:34:32;4.60;;;1.85;;
21771;SDS011;11047;47.904;8.110;2023-01-31T02:37:07;5.50;;;2.22;;
21771;SDS011;11047;47.904;8.110;2023-01-31T02:39:44;4.00;;;2.03;;
21771;SDS011;11047;47.904;8.110;2023-01-31T02:42:21;8.43;;;1.92;;
21771;SDS011;11047;47.904;8.110;2023-01-31T02:44:55;7.45;;;2.15;;
21771;SDS011;11047;47.904;8.110;2023-01-31T02:47:32;7.25;;;2.58;;
21771;SDS011;11047;47.904;8.110;2023-01-31T02:50:19;4.40;;;2.80;;
21771;SDS011;11047;47.904;8.110;2023-01-31T02:52:52;8.10;;;1.98;;
21771;SDS011;11047;47.904;8.110;2023-01-31T02:55:25;10.07;;;2.00;;
21771;SDS011;11047;47.904;8.110;2023-01-31T02:58:12;7.05;;;2.17;;
21771;SDS011;11047;47.904;8.110;2023-01-31T03:00:42;5.15;;;1.85;;
21771;SDS011;11047;47.904;8.110;2023-01-31T03:03:12;7.60;;;2.22;;
21771;SDS011;11047;47.904;8.110;2023-01-31T03:05:55;4.13;;;1.93;;
21771;SDS011;11047;47.904;8.110;2023-01-31T03:08:37;6.65;;;2.03;;
21771;SDS011;11047;47.904;8.110;2023-01-31T03:11:09;6.18;;;1.75;;
21771;SDS011;11047;47.904;8.110;2023-01-31T03:13:41;9.27;;;1.90;;
21771;SDS011;11047;47.904;8.110;2023-01-31T03:16:16;4.75;;;1.70;;
21771;SDS011;11047;47.904;8.110;2023-01-31T03:19:07;3.08;;;2.00;;
21771;SDS011;11047;47.904;8.110;2023-01-31T03:21:42;13.52;;;2.60;;
21771;SDS011;11047;47.904;8.110;2023-01-31T03:24:11;6.55;;;2.75;;
21771;SDS011;11047;47.904;8.110;2023-01-31T03:26:40;7.20;;;2.20;;
21771;SDS011;11047;47.904;8.110;2023-01-31T03:29:07;5.50;;;1.85;;
21771;SDS011;11047;47.904;8.110;2023-01-31T03:31:39;5.18;;;2.20;;
21771;SDS011;11047;47.904;8.110;2023-01-31T03:34:11;5.80;;;1.83;;
21771;SDS011;11047;47.904;8.110;2023-01-31T03:36:43;6.47;;;2.33;;
21771;SDS011;11047;47.904;8.110;2023-01-31T03:39:18;4.78;;;2.28;;
21771;SDS011;11047;47.904;8.110;2023-01-31T03:42:01;7.30;;;2.22;;
21771;SDS011;11047;47.904;8.110;2023-01-31T03:44:34;7.70;;;1.92;;
21771;SDS011;11047;47.904;8.110;2023-01-31T03:47:08;9.25;;;2.28;;
21771;SDS011;11047;47.904;8.110;2023-01-31T03:49:40;6.78;;;2.05;;
21771;SDS011;11047;47.904;8.110;2023-01-31T03:52:11;7.28;;;2.15;;
21771;SDS011;11047;47.904;8.110;2023-01-31T03:57:13;5.32;;;2.17;;
21771;SDS011;11047;47.904;8.110;2023-01-31T03:59:46;8.52;;;2.08;;
21771;SDS011;11047;47.904;8.110;2023-01-31T04:02:18;6.32;;;2.45;;
21771;SDS011;11047;47.904;8.110;2023-01-31T04:04:49;6.78;;;2.10;;
21771;SDS011;11047;47.904;8.110;2023-01-31T04:07:22;4.07;;;2.00;;
21771;SDS011;11047;47.904;8.110;2023-01-31T04:09:49;8.85;;;2.40;;
21771;SDS011;11047;47.904;8.110;2023-01-31T04:12:16;8.13;;;2.20;;
21771;SDS011;11047;47.904;8.110;2023-01-31T04:14:43;6.43;;;2.42;;
21771;SDS011;11047;47.904;8.110;2023-01-31T04:17:10;12.15;;;2.55;;
21771;SDS011;11047;47.904;8.110;2023-01-31T04:19:37;7.22;;;2.13;;
21771;SDS011;11047;47.904;8.110;2023-01-31T04:22:04;3.60;;;1.92;;
21771;SDS011;11047;47.904;8.110;2023-01-31T04:24:32;9.90;;;2.17;;
21771;SDS011;11047;47.904;8.110;2023-01-31T04:26:59;6.50;;;2.22;;
21771;SDS011;11047;47.904;8.110;2023-01-31T04:29:26;5.28;;;2.20;;
21771;SDS011;11047;47.904;8.110;2023-01-31T04:31:53;4.45;;;2.13;;
21771;SDS011;11047;47.904;8.110;2023-01-31T04:34:20;5.15;;;2.08;;
21771;SDS011;11047;47.904;8.110;2023-01-31T04:36:47;6.18;;;2.17;;
21771;SDS011;11047;47.904;8.110;2023-01-31T04:39:14;5.95;;;2.20;;
21771;SDS011;11047;47.904;8.110;2023-01-31T04:41:42;8.30;;;2.70;;
21771;SDS011;11047;47.904;8.110;2023-01-31T04:44:09;6.85;;;2.08;;
21771;SDS011;11047;47.904;8.110;2023-01-31T04:46:36;6.07;;;2.55;;
21771;SDS011;11047;47.904;8.110;2023-01-31T04:49:03;8.20;;;2.47;;
21771;SDS011;11047;47.904;8.110;2023-01-31T04:51:30;9.02;;;2.50;;
21771;SDS011;11047;47.904;8.110;2023-01-31T04:53:57;6.38;;;2.92;;
21771;SDS011;11047;47.904;8.110;2023-01-31T04:56:24;8.55;;;3.05;;
21771;SDS011;11047;47.904;8.110;2023-01-31T04:58:52;5.43;;;2.63;;
21771;SDS011;11047;47.904;8.110;2023-01-31T05:01:19;4.97;;;2.30;;
21771;SDS011;11047;47.904;8.110;2023-01-31T05:03:47;7.65;;;2.88;;
21771;SDS011;11047;47.904;8.110;2023-01-31T05:06:14;6.03;;;2.38;;
21771;SDS011;11047;47.904;8.110;2023-01-31T05:08:41;12.45;;;2.78;;
21771;SDS011;11047;47.904;8.110;2023-01-31T05:11:08;10.85;;;2.80;;
21771;SDS011;11047;47.904;8.110;2023-01-31T05:13:35;7.15;;;2.65;;
21771;SDS011;11047;47.904;8.110;2023-01-31T05:16:05;7.28;;;2.72;;
21771;SDS011;11047;47.904;8.110;2023-01-31T05:18:33;7.95;;;2.70;;
21771;SDS011;11047;47.904;8.110;2023-01-31T05:21:00;6.95;;;2.45;;
21771;SDS011;11047;47.904;8.110;2023-01-31T05:23:27;7.20;;;2.80;;
21771;SDS011;11047;47.904;8.110;2023-01-31T05:25:54;4.22;;;2.40;;
21771;SDS011;11047;47.904;8.110;2023-01-31T05:28:21;5.03;;;2.65;;
21771;SDS011;11047;47.904;8.110;2023-01-31T05:30:50;8.48;;;2.70;;
21771;SDS011;11047;47.904;8.110;2023-01-31T05:33:18;8.35;;;2.97;;
21771;SDS011;11047;47.904;8.110;2023-01-31T05:35:45;11.65;;;2.97;;
21771;SDS011;11047;47.904;8.110;2023-01-31T05:38:12;5.72;;;2.50;;
21771;SDS011;11047;47.904;8.110;2023-01-31T05:40:39;5.32;;;2.30;;
21771;SDS011;11047;47.904;8.110;2023-01-31T05:43:06;9.20;;;2.40;;
21771;SDS011;11047;47.904;8.110;2023-01-31T05:45:33;12.15;;;2.25;;
21771;SDS011;11047;47.904;8.110;2023-01-31T05:48:00;5.85;;;2.40;;
21771;SDS011;11047;47.904;8.110;2023-01-31T05:50:29;11.20;;;2.83;;
21771;SDS011;11047;47.904;8.110;2023-01-31T05:52:56;10.52;;;2.83;;
21771;SDS011;11047;47.904;8.110;2023-01-31T05:55:24;7.00;;;2.58;;
21771;SDS011;11047;47.904;8.110;2023-01-31T05:57:52;13.77;;;2.55;;
21771;SDS011;11047;47.904;8.110;2023-01-31T06:00:19;13.13;;;2.50;;
21771;SDS011;11047;47.904;8.110;2023-01-31T06:02:47;7.00;;;2.67;;
21771;SDS011;11047;47.904;8.110;2023-01-31T06:05:14;6.78;;;2.42;;
21771;SDS011;11047;47.904;8.110;2023-01-31T06:07:43;7.43;;;2.42;;
21771;SDS011;11047;47.904;8.110;2023-01-31T06:10:10;7.82;;;2.40;;
21771;SDS011;11047;47.904;8.110;2023-01-31T06:12:37;4.70;;;2.00;;
21771;SDS011;11047;47.904;8.110;2023-01-31T06:15:05;5.55;;;2.30;;
21771;SDS011;11047;47.904;8.110;2023-01-31T06:17:32;7.30;;;2.00;;
21771;SDS011;11047;47.904;8.110;2023-01-31T06:19:59;5.97;;;2.20;;
21771;SDS011;11047;47.904;8.110;2023-01-31T06:22:26;9.60;;;2.08;;
21771;SDS011;11047;47.904;8.110;2023-01-31T06:24:54;7.10;;;2.42;;
21771;SDS011;11047;47.904;8.110;2023-01-31T06:27:21;6.88;;;2.45;;
21771;SDS011;11047;47.904;8.110;2023-01-31T06:29:48;9.25;;;2.80;;
21771;SDS011;11047;47.904;8.110;2023-01-31T06:32:15;4.72;;;2.55;;
21771;SDS011;11047;47.904;8.110;2023-01-31T06:34:42;3.75;;;2.13;;
21771;SDS011;11047;47.904;8.110;2023-01-31T06:37:09;6.72;;;2.45;;
21771;SDS011;11047;47.904;8.110;2023-01-31T06:39:35;6.47;;;3.33;;
21771;SDS011;11047;47.904;8.110;2023-01-31T06:42:04;7.15;;;2.83;;
21771;SDS011;11047;47.904;8.110;2023-01-31T06:44:31;7.93;;;3.05;;
21771;SDS011;11047;47.904;8.110;2023-01-31T06:46:58;6.65;;;2.40;;
21771;SDS011;11047;47.904;8.110;2023-01-31T06:49:25;5.22;;;2.63;;
21771;SDS011;11047;47.904;8.110;2023-01-31T06:51:52;9.10;;;2.50;;
21771;SDS011;11047;47.904;8.110;2023-01-31T06:54:19;6.10;;;3.00;;
21771;SDS011;11047;47.904;8.110;2023-01-31T06:56:46;8.07;;;2.53;;
21771;SDS011;11047;47.904;8.110;2023-01-31T06:59:14;7.57;;;2.58;;
21771;SDS011;11047;47.904;8.110;2023-01-31T07:01:41;4.80;;;2.17;;
21771;SDS011;11047;47.904;8.110;2023-01-31T07:04:08;5.28;;;2.08;;
21771;SDS011;11047;47.904;8.110;2023-01-31T07:06:35;4.63;;;2.50;;
21771;SDS011;11047;47.904;8.110;2023-01-31T07:09:02;8.45;;;2.70;;
21771;SDS011;11047;47.904;8.110;2023-01-31T07:11:29;3.97;;;2.40;;
21771;SDS011;11047;47.904;8.110;2023-01-31T07:13:56;10.55;;;3.33;;
21771;SDS011;11047;47.904;8.110;2023-01-31T07:16:24;8.43;;;3.10;;
21771;SDS011;11047;47.904;8.110;2023-01-31T07:18:51;9.30;;;2.63;;
21771;SDS011;11047;47.904;8.110;2023-01-31T07:21:18;5.38;;;2.55;;
21771;SDS011;11047;47.904;8.110;2023-01-31T07:23:46;8.30;;;2.53;;
21771;SDS011;11047;47.904;8.110;2023-01-31T07:26:13;5.22;;;2.67;;
21771;SDS011;11047;47.904;8.110;2023-01-31T07:28:40;4.35;;;2.92;;
21771;SDS011;11047;47.904;8.110;2023-01-31T07:31:07;4.63;;;2.33;;
21771;SDS011;11047;47.904;8.110;2023-01-31T07:33:38;5.30;;;2.50;;
21771;SDS011;11047;47.904;8.110;2023-01-31T07:36:05;6.28;;;2.75;;
21771;SDS011;11047;47.904;8.110;2023-01-31T07:38:33;7.05;;;2.67;;
21771;SDS011;11047;47.904;8.110;2023-01-31T07:41:01;4.13;;;2.10;;
21771;SDS011;11047;47.904;8.110;2023-01-31T07:43:29;5.10;;;2.05;;
21771;SDS011;11047;47.904;8.110;2023-01-31T07:45:57;4.55;;;1.80;;
21771;SDS011;11047;47.904;8.110;2023-01-31T07:48:24;5.07;;;2.22;;
21771;SDS011;11047;47.904;8.110;2023-01-31T07:50:56;6.93;;;2.20;;
21771;SDS011;11047;47.904;8.110;2023-01-31T07:53:25;5.38;;;2.20;;
21771;SDS011;11047;47.904;8.110;2023-01-31T07:55:53;6.13;;;2.45;;
21771;SDS011;11047;47.904;8.110;2023-01-31T07:58:20;9.32;;;2.67;;
21771;SDS011;11047;47.904;8.110;2023-01-31T08:00:47;3.97;;;2.47;;
21771;SDS011;11047;47.904;8.110;2023-01-31T08:03:31;7.22;;;2.55;;
21771;SDS011;11047;47.904;8.110;2023-01-31T08:06:00;5.63;;;2.38;;
21771;SDS011;11047;47.904;8.110;2023-01-31T08:08:28;5.88;;;2.45;;
21771;SDS011;11047;47.904;8.110;2023-01-31T08:10:55;6.45;;;2.28;;
21771;SDS011;11047;47.904;8.110;2023-01-31T08:13:22;4.75;;;2.42;;
21771;SDS011;11047;47.904;8.110;2023-01-31T08:15:50;5.95;;;2.10;;
21771;SDS011;11047;47.904;8.110;2023-01-31T08:18:18;8.48;;;2.97;;
21771;SDS011;11047;47.904;8.110;2023-01-31T08:20:44;5.18;;;2.63;;
21771;SDS011;11047;47.904;8.110;2023-01-31T08:23:13;5.30;;;2.65;;
21771;SDS011;11047;47.904;8.110;2023-01-31T08:25:40;4.43;;;2.63;;
21771;SDS011;11047;47.904;8.110;2023-01-31T08:28:07;3.78;;;2.40;;
21771;SDS011;11047;47.904;8.110;2023-01-31T08:30:37;8.75;;;2.85;;
21771;SDS011;11047;47.904;8.110;2023-01-31T08:33:05;6.90;;;3.05;;
21771;SDS011;11047;47.904;8.110;2023-01-31T08:35:32;4.97;;;2.80;;
21771;SDS011;11047;47.904;8.110;2023-01-31T08:37:59;5.22;;;2.33;;
21771;SDS011;11047;47.904;8.110;2023-01-31T08:40:27;6.97;;;3.25;;
21771;SDS011;11047;47.904;8.110;2023-01-31T08:42:54;3.95;;;2.35;;
21771;SDS011;11047;47.904;8.110;2023-01-31T08:45:21;6.40;;;2.53;;
21771;SDS011;11047;47.904;8.110;2023-01-31T08:47:51;6.72;;;2.10;;
21771;SDS011;11047;47.904;8.110;2023-01-31T08:50:19;7.55;;;2.67;;
21771;SDS011;11047;47.904;8.110;2023-01-31T08:52:46;3.75;;;2.42;;
21771;SDS011;11047;47.904;8.110;2023-01-31T08:55:17;4.95;;;2.92;;
21771;SDS011;11047;47.904;8.110;2023-01-31T08:57:45;5.03;;;2.28;;
21771;SDS011;11047;47.904;8.110;2023-01-31T09:00:12;4.65;;;2.90;;
21771;SDS011;11047;47.904;8.110;2023-01-31T09:02:40;5.63;;;2.67;;
21771;SDS011;11047;47.904;8.110;2023-01-31T09:05:07;6.60;;;3.20;;
21771;SDS011;11047;47.904;8.110;2023-01-31T09:07:34;5.57;;;2.60;;
21771;SDS011;11047;47.904;8.110;2023-01-31T09:10:01;5.60;;;3.00;;
21771;SDS011;11047;47.904;8.110;2023-01-31T09:12:28;6.60;;;3.58;;
21771;SDS011;11047;47.904;8.110;2023-01-31T09:14:57;6.75;;;3.50;;
21771;SDS011;11047;47.904;8.110;2023-01-31T09:17:23;9.50;;;4.20;;
21771;SDS011;11047;47.904;8.110;2023-01-31T09:19:51;6.85;;;3.28;;
21771;SDS011;11047;47.904;8.110;2023-01-31T09:22:17;6.18;;;3.15;;
21771;SDS011;11047;47.904;8.110;2023-01-31T09:24:45;6.63;;;2.42;;
21771;SDS011;11047;47.904;8.110;2023-01-31T09:27:11;4.03;;;2.50;;
21771;SDS011;11047;47.904;8.110;2023-01-31T09:29:38;4.25;;;2.38;;
21771;SDS011;11047;47.904;8.110;2023-01-31T09:32:07;2.00;;;1.35;;
21771;SDS011;11047;47.904;8.110;2023-01-31T09:34:33;2.03;;;1.05;;
21771;SDS011;11047;47.904;8.110;2023-01-31T09:37:00;2.80;;;1.20;;
21771;SDS011;11047;47.904;8.110;2023-01-31T09:39:27;2.83;;;1.10;;
21771;SDS011;11047;47.904;8.110;2023-01-31T09:41:55;4.38;;;2.35;;
21771;SDS011;11047;47.904;8.110;2023-01-31T09:44:26;3.60;;;2.13;;
21771;SDS011;11047;47.904;8.110;2023-01-31T09:46:58;3.55;;;2.00;;
21771;SDS011;11047;47.904;8.110;2023-01-31T09:49:35;4.78;;;2.17;;
21771;SDS011;11047;47.904;8.110;2023-01-31T09:52:09;4.40;;;2.10;;
21771;SDS011;11047;47.904;8.110;2023-01-31T09:54:37;4.78;;;1.73;;
21771;SDS011;11047;47.904;8.110;2023-01-31T09:57:08;2.63;;;1.42;;
21771;SDS011;11047;47.904;8.110;2023-01-31T09:59:46;4.68;;;1.73;;
21771;SDS011;11047;47.904;8.110;2023-01-31T10:02:29;2.57;;;1.50;;
21771;SDS011;11047;47.904;8.110;2023-01-31T10:05:16;3.55;;;1.70;;
21771;SDS011;11047;47.904;8.110;2023-01-31T10:07:51;3.35;;;1.40;;
21771;SDS011;11047;47.904;8.110;2023-01-31T10:10:27;3.80;;;1.83;;
21771;SDS011;11047;47.904;8.110;2023-01-31T10:13:02;2.05;;;1.25;;
21771;SDS011;11047;47.904;8.110;2023-01-31T10:15:34;3.03;;;1.45;;
21771;SDS011;11047;47.904;8.110;2023-01-31T10:18:07;3.83;;;1.42;;
21771;SDS011;11047;47.904;8.110;2023-01-31T10:20:41;3.25;;;1.20;;
21771;SDS011;11047;47.904;8.110;2023-01-31T10:23:13;2.60;;;1.40;;
21771;SDS011;11047;47.904;8.110;2023-01-31T10:25:45;2.58;;;1.20;;
21771;SDS011;11047;47.904;8.110;2023-01-31T10:28:16;2.35;;;1.45;;
21771;SDS011;11047;47.904;8.110;2023-01-31T10:30:47;2.22;;;1.20;;
21771;SDS011;11047;47.904;8.110;2023-01-31T10:33:22;2.03;;;1.15;;
21771;SDS011;11047;47.904;8.110;2023-01-31T10:35:56;3.70;;;1.30;;
21771;SDS011;11047;47.904;8.110;2023-01-31T10:38:28;2.28;;;1.13;;
21771;SDS011;11047;47.904;8.110;2023-01-31T10:41:05;1.80;;;1.10;;
21771;SDS011;11047;47.904;8.110;2023-01-31T10:43:42;3.65;;;1.35;;
21771;SDS011;11047;47.904;8.110;2023-01-31T10:46:12;2.80;;;1.40;;
21771;SDS011;11047;47.904;8.110;2023-01-31T10:48:40;2.53;;;1.38;;
21771;SDS011;11047;47.904;8.110;2023-01-31T10:51:15;6.05;;;2.30;;
21771;SDS011;11047;47.904;8.110;2023-01-31T10:53:55;3.25;;;1.60;;
21771;SDS011;11047;47.904;8.110;2023-01-31T10:56:33;2.47;;;1.58;;
21771;SDS011;11047;47.904;8.110;2023-01-31T10:59:03;3.50;;;1.77;;
21771;SDS011;11047;47.904;8.110;2023-01-31T11:01:35;3.42;;;1.70;;
21771;SDS011;11047;47.904;8.110;2023-01-31T11:04:03;1.70;;;1.17;;
21771;SDS011;11047;47.904;8.110;2023-01-31T11:06:49;3.03;;;1.98;;
21771;SDS011;11047;47.904;8.110;2023-01-31T11:09:16;4.93;;;1.67;;
21771;SDS011;11047;47.904;8.110;2023-01-31T11:11:55;4.60;;;2.03;;
21771;SDS011;11047;47.904;8.110;2023-01-31T11:14:23;3.40;;;1.55;;
21771;SDS011;11047;47.904;8.110;2023-01-31T11:16:54;5.07;;;2.22;;
21771;SDS011;11047;47.904;8.110;2023-01-31T11:19:26;4.50;;;1.67;;
21771;SDS011;11047;47.904;8.110;2023-01-31T11:24:27;6.97;;;1.85;;
21771;SDS011;11047;47.904;8.110;2023-01-31T11:26:57;4.13;;;2.38;;
21771;SDS011;11047;47.904;8.110;2023-01-31T11:29:27;4.60;;;2.17;;
21771;SDS011;11047;47.904;8.110;2023-01-31T11:31:55;5.55;;;1.90;;
21771;SDS011;11047;47.904;8.110;2023-01-31T11:34:24;4.70;;;1.80;;
21771;SDS011;11047;47.904;8.110;2023-01-31T11:36:54;3.78;;;1.90;;
21771;SDS011;11047;47.904;8.110;2023-01-31T11:39:31;3.33;;;1.65;;
21771;SDS011;11047;47.904;8.110;2023-01-31T11:42:05;6.55;;;1.85;;
21771;SDS011;11047;47.904;8.110;2023-01-31T11:44:47;2.90;;;1.60;;
21771;SDS011;11047;47.904;8.110;2023-01-31T11:47:20;6.13;;;2.13;;
21771;SDS011;11047;47.904;8.110;2023-01-31T11:49:53;3.10;;;1.73;;
21771;SDS011;11047;47.904;8.110;2023-01-31T11:52:26;6.05;;;2.55;;
21771;SDS011;11047;47.904;8.110;2023-01-31T11:54:55;4.63;;;1.88;;
21771;SDS011;11047;47.904;8.110;2023-01-31T11:57:24;2.65;;;1.60;;
21771;SDS011;11047;47.904;8.110;2023-01-31T11:59:54;4.07;;;2.08;;
21771;SDS011;11047;47.904;8.110;2023-01-31T12:02:25;7.72;;;2.47;;
21771;SDS011;11047;47.904;8.110;2023-01-31T12:04:57;7.22;;;2.00;;
21771;SDS011;11047;47.904;8.110;2023-01-31T12:07:26;9.50;;;2.47;;
21771;SDS011;11047;47.904;8.110;2023-01-31T12:09:57;9.07;;;2.05;;
21771;SDS011;11047;47.904;8.110;2023-01-31T12:12:28;6.93;;;1.85;;
21771;SDS011;11047;47.904;8.110;2023-01-31T12:14:59;3.47;;;1.98;;
21771;SDS011;11047;47.904;8.110;2023-01-31T12:17:27;4.50;;;1.98;;
21771;SDS011;11047;47.904;8.110;2023-01-31T12:20:06;5.38;;;1.83;;
21771;SDS011;11047;47.904;8.110;2023-01-31T12:22:45;10.23;;;2.13;;
21771;SDS011;11047;47.904;8.110;2023-01-31T12:25:21;4.70;;;1.70;;
21771;SDS011;11047;47.904;8.110;2023-01-31T12:27:59;5.03;;;1.42;;
21771;SDS011;11047;47.904;8.110;2023-01-31T12:30:47;9.50;;;1.40;;
21771;SDS011;11047;47.904;8.110;2023-01-31T12:33:27;3.72;;;1.50;;
21771;SDS011;11047;47.904;8.110;2023-01-31T12:36:14;4.40;;;1.40;;
21771;SDS011;11047;47.904;8.110;2023-01-31T12:39:02;3.90;;;1.20;;
21771;SDS011;11047;47.904;8.110;2023-01-31T12:41:40;2.25;;;1.40;;
21771;SDS011;11047;47.904;8.110;2023-01-31T12:44:29;7.68;;;1.52;;
21771;SDS011;11047;47.904;8.110;2023-01-31T12:47:17;7.43;;;2.08;;
21771;SDS011;11047;47.904;8.110;2023-01-31T12:50:04;2.58;;;1.40;;
21771;SDS011;11047;47.904;8.110;2023-01-31T12:52:49;10.70;;;1.50;;
21771;SDS011;11047;47.904;8.110;2023-01-31T12:55:31;5.40;;;2.13;;
21771;SDS011;11047;47.904;8.110;2023-01-31T12:58:08;5.18;;;1.77;;
21771;SDS011;11047;47.904;8.110;2023-01-31T13:00:54;5.75;;;1.20;;
21771;SDS011;11047;47.904;8.110;2023-01-31T13:03:32;3.75;;;1.50;;
21771;SDS011;11047;47.904;8.110;2023-01-31T13:06:05;6.38;;;1.50;;
21771;SDS011;11047;47.904;8.110;2023-01-31T13:08:39;4.25;;;1.30;;
21771;SDS011;11047;47.904;8.110;2023-01-31T13:11:12;5.13;;;1.73;;
21771;SDS011;11047;47.904;8.110;2023-01-31T13:13:44;2.78;;;1.20;;
21771;SDS011;11047;47.904;8.110;2023-01-31T13:16:15;3.15;;;1.70;;
21771;SDS011;11047;47.904;8.110;2023-01-31T13:18:46;6.15;;;1.70;;
21771;SDS011;11047;47.904;8.110;2023-01-31T13:21:15;3.42;;;1.35;;
21771;SDS011;11047;47.904;8.110;2023-01-31T13:23:45;3.70;;;1.73;;
21771;SDS011;11047;47.904;8.110;2023-01-31T13:26:16;2.22;;;1.33;;
21771;SDS011;11047;47.904;8.110;2023-01-31T13:28:47;4.28;;;1.50;;
21771;SDS011;11047;47.904;8.110;2023-01-31T13:31:22;2.53;;;1.80;;
21771;SDS011;11047;47.904;8.110;2023-01-31T13:33:53;4.63;;;1.83;;
21771;SDS011;11047;47.904;8.110;2023-01-31T13:36:26;3.28;;;1.70;;
21771;SDS011;11047;47.904;8.110;2023-01-31T13:38:58;6.10;;;2.03;;
21771;SDS011;11047;47.904;8.110;2023-01-31T13:41:32;5.40;;;2.35;;
21771;SDS011;11047;47.904;8.110;2023-01-31T13:44:00;4.60;;;1.80;;
21771;SDS011;11047;47.904;8.110;2023-01-31T13:46:28;4.55;;;2.20;;
21771;SDS011;11047;47.904;8.110;2023-01-31T13:49:02;7.00;;;2.15;;
21771;SDS011;11047;47.904;8.110;2023-01-31T13:51:33;4.38;;;2.35;;
21771;SDS011;11047;47.904;8.110;2023-01-31T13:54:03;3.78;;;1.80;;
21771;SDS011;11047;47.904;8.110;2023-01-31T13:56:39;6.25;;;2.53;;
21771;SDS011;11047;47.904;8.110;2023-01-31T13:59:06;6.15;;;2.25;;
21771;SDS011;11047;47.904;8.110;2023-01-31T14:01:35;4.60;;;2.65;;
21771;SDS011;11047;47.904;8.110;2023-01-31T14:16:01;4.30;;;1.95;;
21771;SDS011;11047;47.904;8.110;2023-01-31T14:18:39;3.35;;;1.83;;
21771;SDS011;11047;47.904;8.110;2023-01-31T14:24:17;5.78;;;2.33;;
21771;SDS011;11047;47.904;8.110;2023-01-31T14:26:49;3.20;;;1.83;;
21771;SDS011;11047;47.904;8.110;2023-01-31T14:29:18;2.33;;;1.83;;
21771;SDS011;11047;47.904;8.110;2023-01-31T14:31:49;5.85;;;2.25;;
21771;SDS011;11047;47.904;8.110;2023-01-31T14:34:19;2.38;;;1.70;;
21771;SDS011;11047;47.904;8.110;2023-01-31T14:36:52;2.53;;;1.85;;
21771;SDS011;11047;47.904;8.110;2023-01-31T14:39:37;3.55;;;1.63;;
21771;SDS011;11047;47.904;8.110;2023-01-31T14:45:13;3.08;;;1.42;;
21771;SDS011;11047;47.904;8.110;2023-01-31T14:48:03;3.20;;;2.20;;
21771;SDS011;11047;47.904;8.110;2023-01-31T14:50:41;4.93;;;2.45;;
21771;SDS011;11047;47.904;8.110;2023-01-31T14:53:25;3.53;;;1.70;;
21771;SDS011;11047;47.904;8.110;2023-01-31T14:56:10;4.28;;;2.10;;
21771;SDS011;11047;47.904;8.110;2023-01-31T14:58:48;2.67;;;1.50;;
21771;SDS011;11047;47.904;8.110;2023-01-31T15:01:16;3.97;;;1.75;;
21771;SDS011;11047;47.904;8.110;2023-01-31T15:03:49;3.42;;;1.80;;
21771;SDS011;11047;47.904;8.110;2023-01-31T15:06:21;4.27;;;1.30;;
21771;SDS011;11047;47.904;8.110;2023-01-31T15:08:49;2.72;;;1.83;;
21771;SDS011;11047;47.904;8.110;2023-01-31T15:11:40;2.75;;;2.30;;
21771;SDS011;11047;47.904;8.110;2023-01-31T15:17:12;3.72;;;1.90;;
21771;SDS011;11047;47.904;8.110;2023-01-31T15:19:45;3.53;;;1.70;;
21771;SDS011;11047;47.904;8.110;2023-01-31T15:22:15;4.43;;;1.63;;
21771;SDS011;11047;47.904;8.110;2023-01-31T15:24:44;3.55;;;1.67;;
21771;SDS011;11047;47.904;8.110;2023-01-31T15:27:13;3.22;;;1.60;;
21771;SDS011;11047;47.904;8.110;2023-01-31T15:29:51;2.88;;;1.73;;
21771;SDS011;11047;47.904;8.110;2023-01-31T15:32:28;4.50;;;2.15;;
21771;SDS011;11047;47.904;8.110;2023-01-31T15:35:11;3.05;;;1.42;;
21771;SDS011;11047;47.904;8.110;2023-01-31T15:37:42;4.03;;;1.40;;
21771;SDS011;11047;47.904;8.110;2023-01-31T15:40:14;3.42;;;1.90;;